Terminal Aerodrome Forecast
Issued by NWS Bismarck, ND

Home | Current Version | Previous Version | Text Only | Print | Product List | Glossary On
Versions: 1 2 3 4 5 6 7 8 9 10 11 12 13 14 15 16 17 18 19 20 21
000
FTUS43 KBIS 231312 AAA
TAFISN
TAF AMD
KISN 231312Z 2313/2412 23005KT P6SM FEW030 OVC070
      TEMPO 2313/2315 3SM -SN BR BKN030 OVC070
     FM231500 04004KT 6SM BR OVC012
     FM231900 05006KT P6SM OVC020
     FM240200 04008KT P6SM BKN035
     FM240600 03003KT P6SM SCT035 SCT120=

USA.gov is the U.S. government's official web portal to all federal, state and local government web resources and services.